createdAt,value
2019-03-31T00:01:53.892Z,53.20
2019-03-31T00:04:22.677Z,52.70
2019-03-31T00:06:50.961Z,52.60
2019-03-31T00:09:19.278Z,52.90
2019-03-31T00:11:47.715Z,52.70
2019-03-31T00:14:15.949Z,52.70
2019-03-31T00:16:44.306Z,53.30
2019-03-31T00:19:12.545Z,53.00
2019-03-31T00:21:40.871Z,53.10
2019-03-31T00:24:09.108Z,53.40
2019-03-31T00:26:37.394Z,53.50
2019-03-31T00:29:05.676Z,54.00
2019-03-31T00:31:33.973Z,53.80
2019-03-31T00:34:02.223Z,53.80
2019-03-31T00:36:30.642Z,54.00
2019-03-31T00:38:59.101Z,54.00
2019-03-31T00:41:27.417Z,54.10
2019-03-31T00:43:55.671Z,53.90
2019-03-31T00:46:23.943Z,53.80
2019-03-31T00:48:52.089Z,54.40
2019-03-31T00:51:20.482Z,55.00
2019-03-31T00:53:48.645Z,54.90
2019-03-31T00:56:17.001Z,55.10
2019-03-31T00:58:45.443Z,54.80
2019-03-31T01:01:36.861Z,54.60
2019-03-31T01:04:05.837Z,54.80
2019-03-31T01:06:42.302Z,54.80
2019-03-31T01:09:23.626Z,54.80
2019-03-31T01:11:53.645Z,55.50
2019-03-31T01:14:22.688Z,55.60
2019-03-31T01:16:53.720Z,55.50
2019-03-31T01:19:22.653Z,55.50
2019-03-31T01:21:51.876Z,55.80
2019-03-31T01:24:20.217Z,56.20
2019-03-31T01:26:48.732Z,56.50
2019-03-31T01:29:17.334Z,56.10
2019-03-31T01:31:50.581Z,55.60
2019-03-31T01:34:16.910Z,55.70
2019-03-31T01:36:45.202Z,55.70
2019-03-31T01:39:13.502Z,55.70
2019-03-31T01:41:41.865Z,55.60
2019-03-31T01:44:10.082Z,55.90
2019-03-31T01:46:38.423Z,56.10
2019-03-31T01:49:06.842Z,56.20
2019-03-31T01:51:35.182Z,57.20
2019-03-31T01:54:03.682Z,57.50
2019-03-31T01:56:32.025Z,57.80
2019-03-31T01:59:00.465Z,58.70
2019-03-31T02:01:28.694Z,58.60
2019-03-31T02:03:57.166Z,58.10
2019-03-31T02:06:25.387Z,57.90
2019-03-31T02:08:53.707Z,58.10
2019-03-31T02:11:21.951Z,58.10
2019-03-31T02:13:50.246Z,58.80
2019-03-31T02:16:18.476Z,58.50
2019-03-31T02:18:46.750Z,58.70
2019-03-31T02:21:14.983Z,58.60
2019-03-31T02:23:43.147Z,58.80
2019-03-31T02:26:11.387Z,59.00
2019-03-31T02:28:39.657Z,58.50
2019-03-31T02:31:07.857Z,58.60
2019-03-31T02:33:36.243Z,58.50
2019-03-31T02:36:04.466Z,58.40
2019-03-31T02:38:32.723Z,58.60
2019-03-31T02:41:01.046Z,59.10
2019-03-31T02:43:29.498Z,59.60
2019-03-31T02:45:57.794Z,60.10
2019-03-31T02:48:26.006Z,59.90
2019-03-31T02:50:54.431Z,59.90
2019-03-31T02:53:22.956Z,59.60
2019-03-31T02:55:54.891Z,59.60
2019-03-31T02:58:25.328Z,60.00
2019-03-31T03:00:54.201Z,60.00
2019-03-31T03:03:22.667Z,60.40
2019-03-31T03:05:55.362Z,60.60
2019-03-31T03:08:27.397Z,60.40
2019-03-31T03:10:59.705Z,60.40
2019-03-31T03:13:31.547Z,60.20
2019-03-31T03:16:16.064Z,60.10
2019-03-31T03:18:46.794Z,59.80
2019-03-31T03:21:15.713Z,60.00
2019-03-31T03:26:32.929Z,59.60
2019-03-31T03:29:01.230Z,59.40
2019-03-31T03:31:29.671Z,59.50
2019-03-31T03:33:58.077Z,59.40
2019-03-31T03:36:26.412Z,59.40
2019-03-31T03:38:54.872Z,60.00
2019-03-31T03:41:23.221Z,60.60
2019-03-31T03:43:55.850Z,60.80
2019-03-31T03:46:21.722Z,60.90
2019-03-31T03:48:50.013Z,60.50
2019-03-31T03:51:18.562Z,60.70
2019-03-31T03:53:46.789Z,62.20
2019-03-31T03:56:15.094Z,62.70
2019-03-31T03:58:43.387Z,62.50
2019-03-31T04:01:22.631Z,62.90
2019-03-31T04:03:51.710Z,62.90
2019-03-31T04:06:20.054Z,62.10
2019-03-31T04:08:48.324Z,61.50
2019-03-31T04:11:23.985Z,61.20
2019-03-31T04:13:53.073Z,61.30
2019-03-31T04:16:22.897Z,62.40
2019-03-31T04:18:51.388Z,62.20
2019-03-31T04:21:19.945Z,61.70
2019-03-31T04:23:48.366Z,61.30
2019-03-31T04:26:16.687Z,61.20
2019-03-31T04:28:45.122Z,60.90
2019-03-31T04:31:13.601Z,60.90
2019-03-31T04:33:51.376Z,60.90
2019-03-31T04:36:12.247Z,60.90
2019-03-31T04:38:40.536Z,61.20
2019-03-31T04:41:08.802Z,61.60
2019-03-31T04:43:37.081Z,61.90
2019-03-31T04:46:05.218Z,61.10
2019-03-31T04:48:33.505Z,61.30
2019-03-31T04:51:01.725Z,61.20
2019-03-31T04:53:30.421Z,61.10
2019-03-31T04:55:58.750Z,61.00
2019-03-31T04:58:27.021Z,61.00
2019-03-31T05:00:55.253Z,62.00
2019-03-31T05:03:23.572Z,62.50
2019-03-31T05:05:51.921Z,63.40
2019-03-31T05:08:20.135Z,63.40
2019-03-31T05:10:48.472Z,63.30
2019-03-31T05:13:16.850Z,62.90
2019-03-31T05:15:45.169Z,62.60
2019-03-31T05:18:13.413Z,62.60
2019-03-31T05:20:41.687Z,62.40
2019-03-31T05:23:09.895Z,62.50
2019-03-31T05:25:38.177Z,62.80
2019-03-31T05:28:06.655Z,62.50
2019-03-31T05:30:34.850Z,62.50
2019-03-31T05:33:03.116Z,62.90
2019-03-31T05:35:31.474Z,62.90
2019-03-31T05:37:59.729Z,63.00
2019-03-31T05:40:30.736Z,63.00
2019-03-31T05:42:58.249Z,63.20
2019-03-31T05:45:26.565Z,63.20
2019-03-31T05:47:54.812Z,63.40
2019-03-31T05:50:23.090Z,63.90
2019-03-31T05:52:51.307Z,63.80
2019-03-31T05:55:19.789Z,63.80
2019-03-31T05:57:48.116Z,63.80
2019-03-31T06:00:27.829Z,63.80
2019-03-31T06:02:57.662Z,64.10
2019-03-31T06:05:25.970Z,64.50
2019-03-31T06:07:54.286Z,64.40
2019-03-31T06:10:22.541Z,64.40
2019-03-31T06:12:50.986Z,65.40
2019-03-31T06:15:19.295Z,65.60
2019-03-31T06:17:47.579Z,66.20
2019-03-31T06:20:15.881Z,65.80
2019-03-31T06:22:44.178Z,65.30
2019-03-31T06:25:12.409Z,64.70
2019-03-31T06:27:40.691Z,65.60
2019-03-31T06:30:09.126Z,65.50
2019-03-31T06:32:37.922Z,65.40
2019-03-31T06:35:06.158Z,65.50
2019-03-31T06:37:34.433Z,65.70
2019-03-31T06:40:02.809Z,66.20
2019-03-31T06:42:31.591Z,67.50
2019-03-31T06:44:59.838Z,67.90
2019-03-31T06:47:28.371Z,67.40
2019-03-31T06:49:56.705Z,68.30
2019-03-31T06:52:25.051Z,68.50
2019-03-31T06:54:53.293Z,68.20
2019-03-31T06:57:21.682Z,68.30
2019-03-31T06:59:49.953Z,68.40
2019-03-31T07:02:18.246Z,68.20
2019-03-31T07:05:00.198Z,68.20
2019-03-31T07:07:16.937Z,69.10
2019-03-31T07:09:45.259Z,68.60
2019-03-31T07:12:13.561Z,69.30
2019-03-31T07:14:41.971Z,69.10
2019-03-31T07:17:10.200Z,69.60
2019-03-31T07:19:38.558Z,68.90
2019-03-31T07:22:06.905Z,69.80
2019-03-31T07:24:35.226Z,69.60
2019-03-31T07:27:03.494Z,68.70
2019-03-31T07:29:31.896Z,68.20
2019-03-31T07:32:00.152Z,68.20
2019-03-31T07:34:28.962Z,68.90
2019-03-31T07:36:57.200Z,68.60
2019-03-31T07:39:25.693Z,69.10
2019-03-31T07:41:54.200Z,69.20
2019-03-31T07:44:22.623Z,68.90
2019-03-31T07:46:50.859Z,68.30
2019-03-31T07:49:19.294Z,67.10
2019-03-31T07:51:47.564Z,66.30
2019-03-31T07:54:15.850Z,66.20
2019-03-31T07:56:44.080Z,66.00
2019-03-31T07:59:12.498Z,65.30
2019-03-31T08:01:40.829Z,64.80
2019-03-31T08:04:09.233Z,65.20
2019-03-31T08:06:37.447Z,65.60
2019-03-31T08:09:06.341Z,65.80
2019-03-31T08:11:34.964Z,65.10
2019-03-31T08:14:03.349Z,65.00
2019-03-31T08:16:31.872Z,63.60
2019-03-31T08:19:00.202Z,64.40
2019-03-31T08:21:28.516Z,64.20
2019-03-31T08:23:56.791Z,64.40
2019-03-31T08:26:25.116Z,63.70
2019-03-31T08:28:53.397Z,62.70
2019-03-31T08:31:21.762Z,63.60
2019-03-31T08:33:50.009Z,63.40
2019-03-31T08:36:18.577Z,63.30
2019-03-31T08:38:46.737Z,62.00
2019-03-31T08:41:15.119Z,61.10
2019-03-31T08:43:43.420Z,62.60
2019-03-31T08:46:11.879Z,61.30
2019-03-31T08:48:40.155Z,60.80
2019-03-31T08:51:08.487Z,59.60
2019-03-31T08:53:36.728Z,59.50
2019-03-31T08:56:08.465Z,59.10
2019-03-31T08:58:35.222Z,59.30
2019-03-31T09:01:09.215Z,57.50
2019-03-31T09:03:39.053Z,57.00
2019-03-31T09:06:07.623Z,56.60
2019-03-31T09:08:36.013Z,55.10
2019-03-31T09:11:04.370Z,54.30
2019-03-31T09:13:32.768Z,55.50
2019-03-31T09:16:01.112Z,52.90
2019-03-31T09:18:29.549Z,53.00
2019-03-31T09:20:57.810Z,52.50
2019-03-31T09:23:26.259Z,50.80
2019-03-31T09:25:54.529Z,49.90
2019-03-31T09:28:23.025Z,49.40
2019-03-31T09:30:51.770Z,49.90
2019-03-31T09:33:20.122Z,48.20
2019-03-31T09:35:48.331Z,47.80
2019-03-31T09:38:17.207Z,47.40
2019-03-31T09:40:45.593Z,48.10
2019-03-31T09:43:14.182Z,48.10
2019-03-31T09:45:42.549Z,48.70
2019-03-31T09:48:11.474Z,47.00
2019-03-31T09:50:40.071Z,45.40
2019-03-31T09:53:08.421Z,46.30
2019-03-31T09:55:36.776Z,47.70
2019-03-31T09:58:05.182Z,46.70
2019-03-31T10:00:43.209Z,46.80
2019-03-31T10:03:13.612Z,47.00
2019-03-31T10:05:42.271Z,46.00
2019-03-31T10:08:10.795Z,47.20
2019-03-31T10:10:39.030Z,45.50
2019-03-31T10:13:07.539Z,46.30
2019-03-31T10:15:36.094Z,46.50
2019-03-31T10:18:04.584Z,46.70
2019-03-31T10:20:33.036Z,47.90
2019-03-31T10:23:01.828Z,45.40
2019-03-31T10:25:30.417Z,47.20
2019-03-31T10:27:58.813Z,49.10
2019-03-31T10:30:31.770Z,47.80
2019-03-31T10:33:01.666Z,47.60
2019-03-31T10:35:30.851Z,47.10
2019-03-31T10:37:59.345Z,47.00
2019-03-31T10:40:28.081Z,46.50
2019-03-31T10:42:56.391Z,45.90
2019-03-31T10:45:24.862Z,46.60
2019-03-31T10:47:53.241Z,45.70
2019-03-31T10:50:21.875Z,45.80
2019-03-31T10:52:50.098Z,45.00
2019-03-31T10:55:18.669Z,45.10
2019-03-31T10:57:47.108Z,43.80
2019-03-31T11:00:19.707Z,45.00
2019-03-31T11:02:49.633Z,41.60
2019-03-31T11:05:18.241Z,40.80
2019-03-31T11:07:46.676Z,43.20
2019-03-31T11:10:14.987Z,42.10
2019-03-31T11:12:43.410Z,40.50
2019-03-31T11:15:12.753Z,41.90
2019-03-31T11:17:41.186Z,41.90
2019-03-31T11:20:09.767Z,41.00
2019-03-31T11:23:06.589Z,39.80
2019-03-31T11:25:36.519Z,39.60
2019-03-31T11:28:04.885Z,40.30
2019-03-31T11:31:11.093Z,39.40
2019-03-31T11:34:19.710Z,39.80
2019-03-31T11:36:50.717Z,40.50
2019-03-31T11:41:47.082Z,39.30
2019-03-31T11:44:15.358Z,39.40
2019-03-31T11:46:43.732Z,38.60
2019-03-31T11:49:12.281Z,38.00
2019-03-31T11:51:40.648Z,40.10
2019-03-31T11:54:09.030Z,37.50
2019-03-31T11:56:37.481Z,37.40
2019-03-31T11:59:05.787Z,37.00
2019-03-31T12:01:34.182Z,38.10
2019-03-31T12:04:02.446Z,38.20
2019-03-31T12:06:30.875Z,39.90
2019-03-31T12:08:59.161Z,38.30
2019-03-31T12:11:27.580Z,38.30
2019-03-31T12:13:55.940Z,36.90
2019-03-31T12:16:24.186Z,36.90
2019-03-31T12:18:52.575Z,37.70
2019-03-31T12:21:20.835Z,37.20
2019-03-31T12:23:49.250Z,36.30
2019-03-31T12:26:17.525Z,37.40
2019-03-31T12:28:45.825Z,37.00
2019-03-31T12:31:13.982Z,35.70
2019-03-31T12:33:42.607Z,35.80
2019-03-31T12:36:10.988Z,35.20
2019-03-31T12:38:39.472Z,33.90
2019-03-31T12:41:07.706Z,33.50
2019-03-31T12:43:36.057Z,35.10
2019-03-31T12:46:04.372Z,35.50
2019-03-31T12:48:32.804Z,34.60
2019-03-31T12:51:01.091Z,36.30
2019-03-31T12:53:29.459Z,36.30
2019-03-31T12:56:00.435Z,36.90
2019-03-31T12:58:27.927Z,36.20
2019-03-31T13:00:56.320Z,35.90
2019-03-31T13:03:24.641Z,36.80
2019-03-31T13:05:53.064Z,34.60
2019-03-31T13:08:21.615Z,34.90
2019-03-31T13:10:49.872Z,35.10
2019-03-31T13:13:18.170Z,36.40
2019-03-31T13:15:46.539Z,36.20
2019-03-31T13:18:15.102Z,34.30
2019-03-31T13:20:43.578Z,34.20
2019-03-31T13:23:11.935Z,34.40
2019-03-31T13:25:40.273Z,34.10
2019-03-31T13:28:08.582Z,34.00
2019-03-31T13:30:37.052Z,34.70
2019-03-31T13:33:05.570Z,36.10
2019-03-31T13:35:33.891Z,32.90
2019-03-31T13:38:11.240Z,33.60
2019-03-31T13:40:40.075Z,32.90
2019-03-31T13:43:08.472Z,33.30
2019-03-31T13:45:36.813Z,35.50
2019-03-31T13:48:05.354Z,34.00
2019-03-31T13:50:33.634Z,33.60
2019-03-31T13:53:01.941Z,33.30
2019-03-31T13:55:30.510Z,32.70
2019-03-31T13:57:59.522Z,33.00
2019-03-31T14:00:37.113Z,33.20
2019-03-31T14:03:06.654Z,33.40
2019-03-31T14:05:35.090Z,32.70
2019-03-31T14:08:03.766Z,32.20
2019-03-31T14:10:32.649Z,31.60
2019-03-31T14:13:00.999Z,31.10
2019-03-31T14:15:29.366Z,31.90
2019-03-31T14:17:57.790Z,30.80
2019-03-31T14:20:26.037Z,30.80
2019-03-31T14:22:54.456Z,31.30
2019-03-31T14:25:22.725Z,30.90
2019-03-31T14:27:51.053Z,31.20
2019-03-31T14:30:20.381Z,29.80
2019-03-31T14:32:51.349Z,30.50
2019-03-31T14:35:20.056Z,32.50
2019-03-31T14:37:48.387Z,31.80
2019-03-31T14:40:16.676Z,30.00
2019-03-31T14:42:45.032Z,30.20
2019-03-31T14:45:27.837Z,29.50
2019-03-31T14:47:57.894Z,30.30
2019-03-31T14:50:37.555Z,31.10
2019-03-31T14:53:06.351Z,31.60
2019-03-31T14:55:35.051Z,29.50
2019-03-31T14:58:03.851Z,29.70
2019-03-31T15:00:32.355Z,30.20
2019-03-31T15:03:00.911Z,31.10
2019-03-31T15:05:29.360Z,29.60
2019-03-31T15:07:58.682Z,28.60
2019-03-31T15:10:27.485Z,29.30
2019-03-31T15:12:55.960Z,28.90
2019-03-31T15:15:24.409Z,30.00
2019-03-31T15:17:52.774Z,30.90
2019-03-31T15:20:21.103Z,29.90
2019-03-31T15:22:51.498Z,29.80
2019-03-31T15:25:19.774Z,29.70
2019-03-31T15:27:48.133Z,31.40
2019-03-31T15:30:16.525Z,30.40
2019-03-31T15:32:44.976Z,29.50
2019-03-31T15:35:13.939Z,31.50
2019-03-31T15:37:42.317Z,30.90
2019-03-31T15:40:10.766Z,31.20
2019-03-31T15:42:39.431Z,31.70
2019-03-31T15:45:08.087Z,30.80
2019-03-31T15:47:36.811Z,31.10
2019-03-31T15:50:05.633Z,31.00
2019-03-31T15:52:34.091Z,31.20
2019-03-31T15:55:02.491Z,31.00
2019-03-31T15:57:32.337Z,30.80
2019-03-31T16:00:00.978Z,31.30
2019-03-31T16:02:30.916Z,31.40
2019-03-31T16:04:59.225Z,31.40
2019-03-31T16:07:27.874Z,31.30
2019-03-31T16:09:55.886Z,31.90
2019-03-31T16:12:24.417Z,32.20
2019-03-31T16:14:52.346Z,32.10
2019-03-31T16:17:20.236Z,32.90
2019-03-31T16:19:48.289Z,32.20
2019-03-31T16:22:16.499Z,31.80
2019-03-31T16:24:47.555Z,32.30
2019-03-31T16:27:20.133Z,32.20
2019-03-31T16:29:50.538Z,31.40
2019-03-31T16:32:18.579Z,32.50
2019-03-31T16:34:46.333Z,32.20
2019-03-31T16:37:14.228Z,32.70
2019-03-31T16:39:42.641Z,33.10
2019-03-31T16:42:10.621Z,32.60
2019-03-31T16:44:38.465Z,32.80
2019-03-31T16:47:07.105Z,32.00
2019-03-31T16:49:35.036Z,31.80
2019-03-31T16:52:02.987Z,32.70
2019-03-31T16:54:31.077Z,33.00
2019-03-31T16:56:58.916Z,32.60
2019-03-31T16:59:26.674Z,32.20
2019-03-31T17:01:54.459Z,32.50
2019-03-31T17:04:22.988Z,31.20
2019-03-31T17:06:51.066Z,32.70
2019-03-31T17:09:19.879Z,32.20
2019-03-31T17:11:47.700Z,32.80
2019-03-31T17:14:15.593Z,33.80
2019-03-31T17:16:45.740Z,32.60
2019-03-31T17:21:48.245Z,33.00
2019-03-31T17:24:16.264Z,33.30
2019-03-31T17:26:44.367Z,33.70
2019-03-31T17:29:12.247Z,33.60
2019-03-31T17:31:40.100Z,33.80
2019-03-31T17:34:07.924Z,33.90
2019-03-31T17:36:35.758Z,34.60
2019-03-31T17:39:06.423Z,34.00
2019-03-31T17:41:34.339Z,34.60
2019-03-31T17:44:02.261Z,34.70
2019-03-31T17:46:30.421Z,35.10
2019-03-31T17:48:58.411Z,34.80
2019-03-31T17:51:26.310Z,35.60
2019-03-31T17:53:54.254Z,35.20
2019-03-31T17:56:22.154Z,35.90
2019-03-31T17:58:50.022Z,35.60
2019-03-31T18:01:17.965Z,35.60
2019-03-31T18:03:45.859Z,35.70
2019-03-31T18:06:13.722Z,36.00
2019-03-31T18:08:42.551Z,35.90
2019-03-31T18:11:10.965Z,36.20
2019-03-31T18:13:38.726Z,36.60
2019-03-31T18:16:06.661Z,36.40
2019-03-31T18:18:34.360Z,36.90
2019-03-31T18:21:02.149Z,36.90
2019-03-31T18:23:30.011Z,36.90
2019-03-31T18:25:57.813Z,37.30
2019-03-31T18:28:25.646Z,37.10
2019-03-31T18:30:53.560Z,37.00
2019-03-31T18:33:21.207Z,37.60
2019-03-31T18:35:49.248Z,37.20
2019-03-31T18:38:17.215Z,37.20
2019-03-31T18:40:45.553Z,37.70
2019-03-31T18:43:13.619Z,38.20
2019-03-31T18:45:41.629Z,38.60
2019-03-31T18:48:09.408Z,38.70
2019-03-31T18:50:37.308Z,39.00
2019-03-31T18:56:00.722Z,39.10
2019-03-31T18:58:42.876Z,39.60
2019-03-31T19:01:34.950Z,39.80
2019-03-31T19:04:36.283Z,39.90
2019-03-31T19:07:14.379Z,40.40
2019-03-31T19:10:06.811Z,41.00
2019-03-31T19:13:01.913Z,41.30
2019-03-31T19:15:49.579Z,42.10
2019-03-31T19:18:37.119Z,42.60
2019-03-31T19:21:30.271Z,43.00
2019-03-31T19:24:22.371Z,43.20
2019-03-31T19:27:20.349Z,43.60
2019-03-31T19:30:09.394Z,44.10
2019-03-31T19:32:58.382Z,44.30
2019-03-31T19:35:46.087Z,44.70
2019-03-31T19:38:22.271Z,45.00
2019-03-31T19:41:17.141Z,45.30
2019-03-31T19:44:11.918Z,45.60
2019-03-31T19:47:06.816Z,45.90
2019-03-31T19:49:45.823Z,46.70
2019-03-31T19:52:31.515Z,46.50
2019-03-31T19:55:32.816Z,46.60
2019-03-31T19:58:24.421Z,47.00
2019-03-31T20:01:15.740Z,47.20
2019-03-31T20:04:03.486Z,47.40
2019-03-31T20:06:55.353Z,47.50
2019-03-31T20:09:37.511Z,47.70
2019-03-31T20:12:25.183Z,47.90
2019-03-31T20:15:11.060Z,48.30
2019-03-31T20:18:03.482Z,48.50
2019-03-31T20:20:45.692Z,48.90
2019-03-31T20:23:26.398Z,49.10
2019-03-31T20:26:14.271Z,49.50
2019-03-31T20:29:11.855Z,50.00
2019-03-31T20:32:09.915Z,50.30
2019-03-31T20:34:57.860Z,50.40
2019-03-31T20:37:48.911Z,50.60
2019-03-31T20:40:50.167Z,50.20
2019-03-31T20:43:54.060Z,50.30
2019-03-31T20:46:22.582Z,50.50
2019-03-31T20:48:50.861Z,50.70
2019-03-31T20:51:18.783Z,50.40
2019-03-31T20:53:49.527Z,50.50
2019-03-31T20:56:17.450Z,50.80
2019-03-31T20:58:45.289Z,51.80
2019-03-31T21:01:13.124Z,52.00
2019-03-31T21:03:41.050Z,51.90
2019-03-31T21:06:08.873Z,51.90
2019-03-31T21:08:36.777Z,52.00
2019-03-31T21:11:05.053Z,52.40
2019-03-31T21:13:32.828Z,52.40
2019-03-31T21:16:00.770Z,52.90
2019-03-31T21:18:28.534Z,53.30
2019-03-31T21:20:56.386Z,53.60
2019-03-31T21:23:24.153Z,54.10
2019-03-31T21:25:51.846Z,54.30
2019-03-31T21:28:19.602Z,54.70
2019-03-31T21:30:47.310Z,55.10
2019-03-31T21:33:15.098Z,55.40
2019-03-31T21:35:42.879Z,55.60
2019-03-31T21:38:10.608Z,55.70
2019-03-31T21:40:38.430Z,56.30
2019-03-31T21:43:06.201Z,56.50
2019-03-31T21:45:33.895Z,56.60
2019-03-31T21:48:01.739Z,56.90
2019-03-31T21:50:29.562Z,56.90
2019-03-31T21:52:57.425Z,57.30
2019-03-31T21:55:25.134Z,57.30
2019-03-31T21:57:52.846Z,57.50
2019-03-31T22:00:25.250Z,57.70
2019-03-31T22:02:54.621Z,58.20
2019-03-31T22:05:22.352Z,58.80
2019-03-31T22:07:50.271Z,59.10
2019-03-31T22:10:18.152Z,59.30
2019-03-31T22:12:45.833Z,59.60
2019-03-31T22:15:13.877Z,59.90
2019-03-31T22:17:41.683Z,60.40
2019-03-31T22:20:10.135Z,61.40
2019-03-31T22:22:37.889Z,61.90
2019-03-31T22:25:05.977Z,62.30
2019-03-31T22:27:33.963Z,62.90
2019-03-31T22:30:01.909Z,64.10
2019-03-31T22:32:31.211Z,64.10
2019-03-31T22:34:59.012Z,64.70
2019-03-31T22:37:26.681Z,65.30
2019-03-31T22:39:54.469Z,65.90
2019-03-31T22:42:22.154Z,66.30
2019-03-31T22:44:49.888Z,66.70
2019-03-31T22:47:17.466Z,67.10
2019-03-31T22:49:45.263Z,67.60
2019-03-31T22:52:12.948Z,68.10
2019-03-31T22:54:40.771Z,68.50
2019-03-31T22:57:08.452Z,69.10
2019-03-31T22:59:36.213Z,69.20
2019-03-31T23:02:03.914Z,69.80
2019-03-31T23:04:31.808Z,70.10
2019-03-31T23:06:59.562Z,70.70
2019-03-31T23:09:27.293Z,71.10
2019-03-31T23:11:55.061Z,72.00
2019-03-31T23:14:22.721Z,72.00
2019-03-31T23:16:50.493Z,71.90
2019-03-31T23:19:18.171Z,72.60
2019-03-31T23:21:46.127Z,73.20
2019-03-31T23:24:13.812Z,73.80
2019-03-31T23:26:41.730Z,74.20
2019-03-31T23:29:09.424Z,74.50
2019-03-31T23:31:37.250Z,74.70
2019-03-31T23:34:04.953Z,75.80
2019-03-31T23:36:32.674Z,75.20
2019-03-31T23:39:00.398Z,75.70
2019-03-31T23:41:29.353Z,75.60
2019-03-31T23:43:57.014Z,75.60
2019-03-31T23:46:24.830Z,75.80
2019-03-31T23:48:52.471Z,76.00
2019-03-31T23:51:20.209Z,76.00
2019-03-31T23:53:47.889Z,75.90
2019-03-31T23:56:15.670Z,76.10
2019-03-31T23:58:43.336Z,76.10
